Thursday, June 29, 2017, 5:08 AM EDT

KNHK, Nas Patuxent River Md

Location: Patuxent River, MD, United States Lat: 38.3
Local Time: 5:08 AM EDT ( 9:08 GMT) Lon: -76.4
Time Zone: US/Eastern Elev: 39 ft

Show me the last for .
Show Decoded

2017-06-29 04:52 METAR KNHK 290852Z AUTO 21009KT 10SM CLR 19/16 A3016 RMK AO2 SLP214 T01940156
                 58001 =
2017-06-29 03:52 METAR KNHK 290752Z AUTO 21005KT 10SM CLR 20/15 A3017 RMK AO2 SLP216 T02000150 =
2017-06-29 02:52 METAR KNHK 290652Z AUTO 21008KT 10SM CLR 21/12 A3017 RMK AO2 SLP216 T02060117 =
2017-06-29 01:52 METAR KNHK 290552Z AUTO 21005KT 10SM CLR 21/14 A3016 RMK AO2 SLP214 T02060139
                 10222 20200 58003 =
2017-06-29 00:52 METAR KNHK 290452Z AUTO 19005KT 10SM CLR 21/14 A3017 RMK AO2 SLP215 T02110139
                 402560156 =
2017-06-28 23:52 METAR KNHK 290352Z AUTO 20007KT 10SM CLR 21/14 A3017 RMK AO2 SLP217 T02060139 =
2017-06-28 22:52 METAR KNHK 290252Z 19006KT 10SM FEW280 21/13 A3017 RMK AO2 SLP218 T02060133
                 53006 =
2017-06-28 21:52 METAR KNHK 290152Z 18004KT 10SM SCT280 20/12 A3017 RMK AO2 SLP216 T02000122 =
2017-06-28 20:52 METAR KNHK 290052Z 19006KT 10SM BKN280 21/12 A3016 RMK AO2 SLP212 T02110122 =
2017-06-28 19:52 METAR KNHK 282352Z 17006KT 10SM BKN280 22/12 A3016 RMK AO2 SLP212 T02220122
                 10250 20222 56004 =
2017-06-28 18:52 METAR KNHK 282252Z 17008KT 10SM FEW070 BKN280 23/12 A3016 RMK AO2 SLP212
                 T02330117 =
2017-06-28 17:52 METAR KNHK 282152Z 15007KT 10SM FEW070 BKN280 25/12 A3016 RMK AO2 SLP213
                 T02500122 =
2017-06-28 16:52 METAR KNHK 282052Z 13009KT 10SM SCT065 BKN280 24/12 A3017 RMK AO2 SLP216
                 T02390117 58003 =
2017-06-28 15:52 METAR KNHK 281952Z 14009KT 10SM SCT060 BKN280 24/11 A3018 RMK AO2 SLP219
                 T02440111 =
2017-06-28 14:52 METAR KNHK 281852Z 14007KT 10SM SCT060 BKN200 24/11 A3018 RMK AO2 SLP221
                 T02440111 =
2017-06-28 13:52 METAR KNHK 281752Z 09009KT 10SM FEW040 25/11 A3018 RMK AO2 SLP219 T02500106
                 10256 20211 58007 =
2017-06-28 12:52 METAR KNHK 281652Z VRB05KT 10SM FEW040 25/11 A3020 RMK AO2 SLP227 T02500106 =
2017-06-28 11:52 METAR KNHK 281552Z 00000KT 10SM FEW040 24/08 A3019 RMK AO2 SLP225 T02390083 =
2017-06-28 10:52 METAR KNHK 281452Z 00000KT 10SM FEW045 23/12 A3020 RMK AO2 SLP226 T02280117
                 53009 =
2017-06-28 09:52 METAR KNHK 281352Z 00000KT 10SM SCT040 23/12 A3018 RMK AO2 SLP220 T02280117 =
2017-06-28 08:52 METAR KNHK 281252Z 00000KT 10SM FEW040 22/12 A3019 RMK AO2 SLP221 T02220117 =
2017-06-28 07:52 METAR KNHK 281152Z 35003KT 10SM FEW100 21/13 A3017 RMK AO2 SLP217 T02110133
                 10211 20156 53016 =
2017-06-28 06:52 METAR KNHK 281052Z 25005KT 10SM FEW200 18/13 A3016 RMK AO2 SLP212 T01780133 =
2017-06-28 05:52 METAR KNHK 280952Z 26003KT 10SM FEW200 16/12 A3014 RMK AO2 SLP206 T01560122 =

Support USWX by starting your Amazon purchase here.